Richards, TX (77873)

5:10 AM CDT on October 02, 2014 (GMT -0500)
Peacock Lane | Change Station
CLOSE
Current Station
Personal Weather Station
Location: Plantersville, TX
Elevation: 318 ft
Nearby Weather Stations

Elev 318 ft 30.35 °N, 95.84 °W | Updated 28 seconds ago

Overcast
Overcast
78.9 °F
Feels Like 83 °F
N
0.0
Wind Variable Wind from ESE
Gusts 0.0 mph

Today
High -- | Low -- °F
--% Chance of Precip.
Yesterday
High -- | Low -- °F
Precip. -- in
7:17 AM 7:07 PM
First Quarter, 57% visible
Pressure 29.83 in
Visibility 10.0 miles
Clouds Scattered Clouds 1200 ft
Mostly Cloudy 2000 ft
Heat Index 83 °F
Dew Point 77 °F
Humidity 93%
Rainfall 0.00 in
Snow Depth Not available.
UV 0 out of 12
Pollen 8.00 out of 12
Air Quality Not available.
Flu Activity Not available.
METAR KUTS 020953Z AUTO 18007KT 10SM SCT012 BKN020 26/24 A2984 RMK AO2 SLP100 T02610239

More Conditions Fewer Conditions

Pressure 29.83 in
Visibility 10.0 miles
Clouds Scattered Clouds 1200 ft
Mostly Cloudy 2000 ft
Heat Index 83 °F
Dew Point 77 °F
Humidity 93%
Rainfall 0.00 in
Snow Depth Not available.
UV 0 out of 12
Pollen 8.00 out of 12
Air Quality Not available.
Flu Activity Not available.
METAR KUTS 020953Z AUTO 18007KT 10SM SCT012 BKN020 26/24 A2984 RMK AO2 SLP100 T02610239

More Conditions Fewer Conditions

10-Day Weather Forecast

Almanac

Astronomy

Oct. 02, 2014 Rise Set
Actual Time 7:17 AM CDT 7:07 PM CDT
Civil Twilight 6:53 AM CDT 7:31 PM CDT
Nautical Twilight 6:25 AM CDT 7:59 PM CDT
Astronomical Twilight 5:57 AM CDT 8:27 PM CDT
Moon 2:53 PM CDT 12:58 AM CDT
Length of Visible Light 12h 37m
Length of Day
11h 49m
Tomorrow will be 1m 50s shorter.
First Quarter, 57% of the Moon is Illuminated
Today
First Quarter
Oct 8
Full
Oct 15
Last Quarter
Oct 23
New
Oct 30
First Quarter

Today's Extremes

State Highs State Lows

Community

WunderPhotos

Upload Photos

1,758,209 photos uploaded!

WunderBlogs® & News

Nearby

Snow Depth

Station Depth Elevation
No new snow has been reported.

Earthquake Activity

City Distance Mag. Time & Date
No recent earthquake activity has been reported nearby.
Minimum magnitude displayed is 2.5.

Coastal Water Temperatures

Place Temperature
No Stations Reporting

Nearby Weather Stations